sensor_id;sensor_type;location;lat;lon;timestamp;temperature;humidity
23869;DHT22;12115;47.128;15.422;2023-07-31T00:02:09;18.00;99.90
23869;DHT22;12115;47.128;15.422;2023-07-31T00:04:36;18.00;99.90
23869;DHT22;12115;47.128;15.422;2023-07-31T00:07:04;17.90;99.90
23869;DHT22;12115;47.128;15.422;2023-07-31T00:09:33;17.80;99.90
23869;DHT22;12115;47.128;15.422;2023-07-31T00:12:01;17.70;99.90
23869;DHT22;12115;47.128;15.422;2023-07-31T00:14:28;17.60;99.90
23869;DHT22;12115;47.128;15.422;2023-07-31T00:16:55;17.60;99.90
23869;DHT22;12115;47.128;15.422;2023-07-31T00:19:22;17.60;99.90
23869;DHT22;12115;47.128;15.422;2023-07-31T00:21:50;17.70;99.90
23869;DHT22;12115;47.128;15.422;2023-07-31T00:24:17;17.70;99.90
23869;DHT22;12115;47.128;15.422;2023-07-31T00:26:45;17.70;99.90
23869;DHT22;12115;47.128;15.422;2023-07-31T00:29:13;17.70;99.90
23869;DHT22;12115;47.128;15.422;2023-07-31T00:31:40;17.70;99.90
23869;DHT22;12115;47.128;15.422;2023-07-31T00:34:08;17.70;99.90
23869;DHT22;12115;47.128;15.422;2023-07-31T00:36:35;17.70;99.90
23869;DHT22;12115;47.128;15.422;2023-07-31T00:39:03;17.60;99.90
23869;DHT22;12115;47.128;15.422;2023-07-31T00:41:31;17.50;99.90
23869;DHT22;12115;47.128;15.422;2023-07-31T00:44:02;17.60;99.90
23869;DHT22;12115;47.128;15.422;2023-07-31T00:46:30;17.50;99.90
23869;DHT22;12115;47.128;15.422;2023-07-31T00:49:00;17.50;99.90
23869;DHT22;12115;47.128;15.422;2023-07-31T00:51:28;17.40;99.90
23869;DHT22;12115;47.128;15.422;2023-07-31T01:59:16;16.90;99.90
23869;DHT22;12115;47.128;15.422;2023-07-31T02:01:50;16.90;99.90
23869;DHT22;12115;47.128;15.422;2023-07-31T02:04:21;16.80;99.90
23869;DHT22;12115;47.128;15.422;2023-07-31T02:06:50;16.70;99.90
23869;DHT22;12115;47.128;15.422;2023-07-31T02:09:19;16.70;99.90
23869;DHT22;12115;47.128;15.422;2023-07-31T02:11:46;16.70;99.90
23869;DHT22;12115;47.128;15.422;2023-07-31T02:14:14;16.70;99.90
23869;DHT22;12115;47.128;15.422;2023-07-31T02:16:41;16.70;99.90
23869;DHT22;12115;47.128;15.422;2023-07-31T02:19:10;16.60;99.90
23869;DHT22;12115;47.128;15.422;2023-07-31T02:21:38;16.70;99.90
23869;DHT22;12115;47.128;15.422;2023-07-31T02:24:06;16.70;99.90
23869;DHT22;12115;47.128;15.422;2023-07-31T02:26:33;16.50;99.90
23869;DHT22;12115;47.128;15.422;2023-07-31T02:29:00;16.50;99.90
23869;DHT22;12115;47.128;15.422;2023-07-31T02:31:28;16.50;99.90
23869;DHT22;12115;47.128;15.422;2023-07-31T02:33:55;16.50;99.90
23869;DHT22;12115;47.128;15.422;2023-07-31T02:36:22;16.50;99.90
23869;DHT22;12115;47.128;15.422;2023-07-31T02:38:49;16.50;99.90
23869;DHT22;12115;47.128;15.422;2023-07-31T02:41:17;16.50;99.90
23869;DHT22;12115;47.128;15.422;2023-07-31T02:43:44;16.50;99.90
23869;DHT22;12115;47.128;15.422;2023-07-31T02:46:11;16.50;99.90
23869;DHT22;12115;47.128;15.422;2023-07-31T02:48:40;16.50;99.90
23869;DHT22;12115;47.128;15.422;2023-07-31T02:51:07;16.50;99.90
23869;DHT22;12115;47.128;15.422;2023-07-31T02:53:35;16.40;99.90
23869;DHT22;12115;47.128;15.422;2023-07-31T02:56:02;16.40;99.90
23869;DHT22;12115;47.128;15.422;2023-07-31T02:58:30;16.40;99.90
23869;DHT22;12115;47.128;15.422;2023-07-31T03:00:59;16.50;99.90
23869;DHT22;12115;47.128;15.422;2023-07-31T03:03:35;16.40;99.90
23869;DHT22;12115;47.128;15.422;2023-07-31T03:06:25;16.40;99.90
23869;DHT22;12115;47.128;15.422;2023-07-31T03:08:54;16.40;99.90
23869;DHT22;12115;47.128;15.422;2023-07-31T03:11:35;16.40;99.90
23869;DHT22;12115;47.128;15.422;2023-07-31T03:14:02;16.40;99.90
23869;DHT22;12115;47.128;15.422;2023-07-31T03:16:30;16.40;99.90
23869;DHT22;12115;47.128;15.422;2023-07-31T03:18:57;16.30;99.90
23869;DHT22;12115;47.128;15.422;2023-07-31T03:24:47;16.20;99.90
23869;DHT22;12115;47.128;15.422;2023-07-31T03:27:21;16.20;99.90
23869;DHT22;12115;47.128;15.422;2023-07-31T03:29:48;16.10;99.90
23869;DHT22;12115;47.128;15.422;2023-07-31T03:32:19;16.10;99.90
23869;DHT22;12115;47.128;15.422;2023-07-31T03:34:54;16.10;99.90
23869;DHT22;12115;47.128;15.422;2023-07-31T03:37:23;16.10;99.90
23869;DHT22;12115;47.128;15.422;2023-07-31T03:39:51;16.10;99.90
23869;DHT22;12115;47.128;15.422;2023-07-31T03:42:18;16.00;99.90
23869;DHT22;12115;47.128;15.422;2023-07-31T03:44:45;16.00;99.90
23869;DHT22;12115;47.128;15.422;2023-07-31T03:47:13;16.00;99.90
23869;DHT22;12115;47.128;15.422;2023-07-31T03:49:40;15.90;99.90
23869;DHT22;12115;47.128;15.422;2023-07-31T03:52:08;15.80;99.90
23869;DHT22;12115;47.128;15.422;2023-07-31T03:54:35;15.80;99.90
23869;DHT22;12115;47.128;15.422;2023-07-31T03:57:03;15.80;99.90
23869;DHT22;12115;47.128;15.422;2023-07-31T03:59:31;15.90;99.90
23869;DHT22;12115;47.128;15.422;2023-07-31T04:01:59;15.80;99.90
23869;DHT22;12115;47.128;15.422;2023-07-31T04:04:26;15.70;99.90
23869;DHT22;12115;47.128;15.422;2023-07-31T04:06:53;15.70;99.90
23869;DHT22;12115;47.128;15.422;2023-07-31T04:09:21;15.70;99.90
23869;DHT22;12115;47.128;15.422;2023-07-31T04:11:48;15.70;99.90
23869;DHT22;12115;47.128;15.422;2023-07-31T04:14:46;15.70;99.90
23869;DHT22;12115;47.128;15.422;2023-07-31T04:18:46;15.80;99.90
23869;DHT22;12115;47.128;15.422;2023-07-31T04:21:16;15.80;99.90
23869;DHT22;12115;47.128;15.422;2023-07-31T04:23:44;15.80;99.90
23869;DHT22;12115;47.128;15.422;2023-07-31T04:26:12;15.80;99.90
23869;DHT22;12115;47.128;15.422;2023-07-31T04:28:39;15.70;99.90
23869;DHT22;12115;47.128;15.422;2023-07-31T04:31:07;15.70;99.90
23869;DHT22;12115;47.128;15.422;2023-07-31T04:33:34;15.70;99.90
23869;DHT22;12115;47.128;15.422;2023-07-31T04:36:02;15.70;99.90
23869;DHT22;12115;47.128;15.422;2023-07-31T04:38:29;15.70;99.90
23869;DHT22;12115;47.128;15.422;2023-07-31T04:40:57;15.70;99.90
23869;DHT22;12115;47.128;15.422;2023-07-31T04:43:24;15.70;99.90
23869;DHT22;12115;47.128;15.422;2023-07-31T04:45:52;15.70;99.90
23869;DHT22;12115;47.128;15.422;2023-07-31T04:48:21;15.80;99.90
23869;DHT22;12115;47.128;15.422;2023-07-31T04:50:49;15.80;99.90
23869;DHT22;12115;47.128;15.422;2023-07-31T04:53:18;15.80;99.90
23869;DHT22;12115;47.128;15.422;2023-07-31T04:55:53;15.80;99.90
23869;DHT22;12115;47.128;15.422;2023-07-31T04:58:22;15.80;99.90
23869;DHT22;12115;47.128;15.422;2023-07-31T05:00:50;15.90;99.90
23869;DHT22;12115;47.128;15.422;2023-07-31T05:03:17;15.90;99.90
23869;DHT22;12115;47.128;15.422;2023-07-31T05:06:16;15.90;99.90
23869;DHT22;12115;47.128;15.422;2023-07-31T05:10:05;16.00;99.90
23869;DHT22;12115;47.128;15.422;2023-07-31T05:13:32;16.10;99.90
23869;DHT22;12115;47.128;15.422;2023-07-31T05:16:32;16.20;99.90
23869;DHT22;12115;47.128;15.422;2023-07-31T05:19:01;16.20;99.90
23869;DHT22;12115;47.128;15.422;2023-07-31T05:21:32;16.30;99.90
23869;DHT22;12115;47.128;15.422;2023-07-31T05:24:00;16.30;99.90
23869;DHT22;12115;47.128;15.422;2023-07-31T05:26:34;16.30;99.90
23869;DHT22;12115;47.128;15.422;2023-07-31T05:29:03;16.40;99.90
23869;DHT22;12115;47.128;15.422;2023-07-31T05:31:30;16.40;99.90
23869;DHT22;12115;47.128;15.422;2023-07-31T05:33:59;16.50;99.90
23869;DHT22;12115;47.128;15.422;2023-07-31T05:36:26;16.50;99.90
23869;DHT22;12115;47.128;15.422;2023-07-31T05:38:53;16.50;99.90
23869;DHT22;12115;47.128;15.422;2023-07-31T05:41:20;16.60;99.90
23869;DHT22;12115;47.128;15.422;2023-07-31T05:43:48;16.70;99.90
23869;DHT22;12115;47.128;15.422;2023-07-31T05:46:16;16.70;99.90
23869;DHT22;12115;47.128;15.422;2023-07-31T05:49:03;16.80;99.90
23869;DHT22;12115;47.128;15.422;2023-07-31T05:51:33;16.80;99.90
23869;DHT22;12115;47.128;15.422;2023-07-31T05:54:01;16.90;99.90
23869;DHT22;12115;47.128;15.422;2023-07-31T05:56:30;16.90;99.90
23869;DHT22;12115;47.128;15.422;2023-07-31T05:59:11;17.00;99.90
23869;DHT22;12115;47.128;15.422;2023-07-31T06:02:13;17.10;99.90
23869;DHT22;12115;47.128;15.422;2023-07-31T06:05:08;17.20;99.90
23869;DHT22;12115;47.128;15.422;2023-07-31T06:07:36;17.30;99.90
23869;DHT22;12115;47.128;15.422;2023-07-31T06:10:03;17.50;99.90
23869;DHT22;12115;47.128;15.422;2023-07-31T06:12:33;17.60;99.90
23869;DHT22;12115;47.128;15.422;2023-07-31T06:15:01;17.60;99.90
23869;DHT22;12115;47.128;15.422;2023-07-31T06:18:08;17.80;99.90
23869;DHT22;12115;47.128;15.422;2023-07-31T06:20:35;17.80;99.90
23869;DHT22;12115;47.128;15.422;2023-07-31T06:23:03;17.90;99.90
23869;DHT22;12115;47.128;15.422;2023-07-31T06:25:32;18.00;99.90
23869;DHT22;12115;47.128;15.422;2023-07-31T06:27:59;18.20;99.90
23869;DHT22;12115;47.128;15.422;2023-07-31T06:30:52;18.20;99.90
23869;DHT22;12115;47.128;15.422;2023-07-31T06:33:19;18.30;99.90
23869;DHT22;12115;47.128;15.422;2023-07-31T06:35:47;18.30;99.90
23869;DHT22;12115;47.128;15.422;2023-07-31T06:42:54;18.50;99.90
23869;DHT22;12115;47.128;15.422;2023-07-31T06:45:51;18.60;99.90
23869;DHT22;12115;47.128;15.422;2023-07-31T06:48:18;18.80;99.90
23869;DHT22;12115;47.128;15.422;2023-07-31T06:50:46;18.90;99.90
23869;DHT22;12115;47.128;15.422;2023-07-31T06:53:32;19.10;99.90
23869;DHT22;12115;47.128;15.422;2023-07-31T06:56:00;19.40;99.90
23869;DHT22;12115;47.128;15.422;2023-07-31T06:58:53;19.40;99.90
23869;DHT22;12115;47.128;15.422;2023-07-31T07:01:20;19.40;99.90
23869;DHT22;12115;47.128;15.422;2023-07-31T07:03:48;19.50;99.90
23869;DHT22;12115;47.128;15.422;2023-07-31T07:06:18;19.60;99.90
23869;DHT22;12115;47.128;15.422;2023-07-31T07:08:49;19.70;99.90
23869;DHT22;12115;47.128;15.422;2023-07-31T07:11:45;19.70;99.90
23869;DHT22;12115;47.128;15.422;2023-07-31T07:14:13;19.80;99.90
23869;DHT22;12115;47.128;15.422;2023-07-31T07:16:40;19.80;99.90
23869;DHT22;12115;47.128;15.422;2023-07-31T07:19:08;19.90;99.90
23869;DHT22;12115;47.128;15.422;2023-07-31T07:21:35;20.00;99.90
23869;DHT22;12115;47.128;15.422;2023-07-31T07:24:03;20.10;99.90
23869;DHT22;12115;47.128;15.422;2023-07-31T07:26:30;20.30;99.90
23869;DHT22;12115;47.128;15.422;2023-07-31T07:28:58;20.30;99.90
23869;DHT22;12115;47.128;15.422;2023-07-31T07:31:42;20.50;99.90
23869;DHT22;12115;47.128;15.422;2023-07-31T07:34:58;20.50;99.90
23869;DHT22;12115;47.128;15.422;2023-07-31T07:37:27;20.60;99.90
23869;DHT22;12115;47.128;15.422;2023-07-31T07:39:59;20.60;99.90
23869;DHT22;12115;47.128;15.422;2023-07-31T07:42:27;20.80;99.90
23869;DHT22;12115;47.128;15.422;2023-07-31T07:44:54;20.80;99.90
23869;DHT22;12115;47.128;15.422;2023-07-31T07:47:21;20.90;99.90
23869;DHT22;12115;47.128;15.422;2023-07-31T07:49:49;21.00;99.90
23869;DHT22;12115;47.128;15.422;2023-07-31T07:52:19;21.00;99.90
23869;DHT22;12115;47.128;15.422;2023-07-31T07:54:47;21.00;99.90
23869;DHT22;12115;47.128;15.422;2023-07-31T07:57:16;21.00;99.90
23869;DHT22;12115;47.128;15.422;2023-07-31T07:59:43;21.00;99.90
23869;DHT22;12115;47.128;15.422;2023-07-31T08:02:10;21.10;99.90
23869;DHT22;12115;47.128;15.422;2023-07-31T08:05:06;21.10;99.90
23869;DHT22;12115;47.128;15.422;2023-07-31T08:09:01;21.20;99.90
23869;DHT22;12115;47.128;15.422;2023-07-31T08:11:33;21.20;99.90
23869;DHT22;12115;47.128;15.422;2023-07-31T08:14:00;21.30;99.90
23869;DHT22;12115;47.128;15.422;2023-07-31T08:16:27;21.40;99.90
23869;DHT22;12115;47.128;15.422;2023-07-31T08:18:55;21.40;99.90
23869;DHT22;12115;47.128;15.422;2023-07-31T08:21:33;21.50;99.90
23869;DHT22;12115;47.128;15.422;2023-07-31T08:24:04;21.50;99.90
23869;DHT22;12115;47.128;15.422;2023-07-31T08:26:59;21.50;99.90
23869;DHT22;12115;47.128;15.422;2023-07-31T08:29:26;21.50;99.90
23869;DHT22;12115;47.128;15.422;2023-07-31T08:31:54;21.60;99.90
23869;DHT22;12115;47.128;15.422;2023-07-31T08:34:21;21.70;99.90
23869;DHT22;12115;47.128;15.422;2023-07-31T08:36:48;21.80;99.90
23869;DHT22;12115;47.128;15.422;2023-07-31T08:39:18;21.90;99.90
23869;DHT22;12115;47.128;15.422;2023-07-31T08:41:46;22.00;99.90
23869;DHT22;12115;47.128;15.422;2023-07-31T08:44:15;22.00;99.90
23869;DHT22;12115;47.128;15.422;2023-07-31T08:47:08;22.10;99.90
23869;DHT22;12115;47.128;15.422;2023-07-31T08:50:08;22.30;99.90
23869;DHT22;12115;47.128;15.422;2023-07-31T08:52:39;22.30;99.90
23869;DHT22;12115;47.128;15.422;2023-07-31T08:55:09;22.40;99.90
23869;DHT22;12115;47.128;15.422;2023-07-31T08:57:38;22.30;99.90
23869;DHT22;12115;47.128;15.422;2023-07-31T09:03:34;22.30;99.90
23869;DHT22;12115;47.128;15.422;2023-07-31T09:06:34;22.40;99.90
23869;DHT22;12115;47.128;15.422;2023-07-31T09:10:10;22.50;99.90
23869;DHT22;12115;47.128;15.422;2023-07-31T09:13:16;22.70;99.90
23869;DHT22;12115;47.128;15.422;2023-07-31T09:15:59;22.80;99.90
23869;DHT22;12115;47.128;15.422;2023-07-31T09:25:34;23.10;99.90
23869;DHT22;12115;47.128;15.422;2023-07-31T09:28:03;23.30;99.90
23869;DHT22;12115;47.128;15.422;2023-07-31T09:30:55;23.10;99.90
23869;DHT22;12115;47.128;15.422;2023-07-31T09:36:52;23.10;99.90
23869;DHT22;12115;47.128;15.422;2023-07-31T09:39:29;23.10;99.90
23869;DHT22;12115;47.128;15.422;2023-07-31T09:42:27;23.10;99.90
23869;DHT22;12115;47.128;15.422;2023-07-31T09:45:07;23.10;99.90
23869;DHT22;12115;47.128;15.422;2023-07-31T09:47:35;23.40;99.90
23869;DHT22;12115;47.128;15.422;2023-07-31T09:50:24;23.60;99.90
23869;DHT22;12115;47.128;15.422;2023-07-31T09:53:50;23.60;99.90
23869;DHT22;12115;47.128;15.422;2023-07-31T09:56:18;23.60;99.90
23869;DHT22;12115;47.128;15.422;2023-07-31T09:58:48;23.60;99.90
23869;DHT22;12115;47.128;15.422;2023-07-31T10:01:16;23.80;99.90
23869;DHT22;12115;47.128;15.422;2023-07-31T10:03:59;23.80;99.90
23869;DHT22;12115;47.128;15.422;2023-07-31T10:06:30;23.70;99.90
23869;DHT22;12115;47.128;15.422;2023-07-31T10:13:33;23.80;99.90
23869;DHT22;12115;47.128;15.422;2023-07-31T10:17:07;24.10;99.90
23869;DHT22;12115;47.128;15.422;2023-07-31T10:19:50;23.90;99.90
23869;DHT22;12115;47.128;15.422;2023-07-31T10:22:24;24.00;99.90
23869;DHT22;12115;47.128;15.422;2023-07-31T10:28:50;24.00;99.90
23869;DHT22;12115;47.128;15.422;2023-07-31T10:31:34;24.10;99.90
23869;DHT22;12115;47.128;15.422;2023-07-31T10:34:20;24.20;99.90
23869;DHT22;12115;47.128;15.422;2023-07-31T10:37:40;24.20;99.90
23869;DHT22;12115;47.128;15.422;2023-07-31T10:40:25;24.30;99.90
23869;DHT22;12115;47.128;15.422;2023-07-31T10:43:23;24.30;99.90
23869;DHT22;12115;47.128;15.422;2023-07-31T10:45:51;24.50;99.90
23869;DHT22;12115;47.128;15.422;2023-07-31T10:48:22;24.50;99.90
23869;DHT22;12115;47.128;15.422;2023-07-31T10:51:23;24.50;99.90
23869;DHT22;12115;47.128;15.422;2023-07-31T10:54:45;24.70;99.90
23869;DHT22;12115;47.128;15.422;2023-07-31T10:57:36;25.00;99.90
23869;DHT22;12115;47.128;15.422;2023-07-31T11:04:11;25.20;99.90
23869;DHT22;12115;47.128;15.422;2023-07-31T11:06:40;25.10;99.90
23869;DHT22;12115;47.128;15.422;2023-07-31T11:09:22;25.10;99.90
23869;DHT22;12115;47.128;15.422;2023-07-31T11:11:49;25.10;99.90
23869;DHT22;12115;47.128;15.422;2023-07-31T11:14:18;24.90;99.90
23869;DHT22;12115;47.128;15.422;2023-07-31T11:16:45;25.00;99.90
23869;DHT22;12115;47.128;15.422;2023-07-31T11:19:38;24.90;99.90
23869;DHT22;12115;47.128;15.422;2023-07-31T11:22:15;25.00;99.90
23869;DHT22;12115;47.128;15.422;2023-07-31T11:25:04;25.10;99.90
23869;DHT22;12115;47.128;15.422;2023-07-31T11:27:38;25.10;99.90
23869;DHT22;12115;47.128;15.422;2023-07-31T11:30:05;25.00;99.90
23869;DHT22;12115;47.128;15.422;2023-07-31T11:32:36;24.90;99.90
23869;DHT22;12115;47.128;15.422;2023-07-31T11:35:05;24.90;99.90
23869;DHT22;12115;47.128;15.422;2023-07-31T11:42:27;24.90;99.90
23869;DHT22;12115;47.128;15.422;2023-07-31T11:45:54;24.90;99.90
23869;DHT22;12115;47.128;15.422;2023-07-31T11:53:14;24.80;99.90
23869;DHT22;12115;47.128;15.422;2023-07-31T11:55:41;24.80;99.90
23869;DHT22;12115;47.128;15.422;2023-07-31T11:58:09;24.90;99.90
23869;DHT22;12115;47.128;15.422;2023-07-31T12:00:48;24.90;99.90
23869;DHT22;12115;47.128;15.422;2023-07-31T12:04:24;24.90;99.90
23869;DHT22;12115;47.128;15.422;2023-07-31T12:07:25;24.90;99.90
23869;DHT22;12115;47.128;15.422;2023-07-31T12:18:11;24.70;99.90
23869;DHT22;12115;47.128;15.422;2023-07-31T12:24:02;24.90;99.90
23869;DHT22;12115;47.128;15.422;2023-07-31T12:26:35;25.00;99.90
23869;DHT22;12115;47.128;15.422;2023-07-31T12:29:07;25.00;99.90
23869;DHT22;12115;47.128;15.422;2023-07-31T12:31:34;24.90;99.90
23869;DHT22;12115;47.128;15.422;2023-07-31T12:34:02;24.90;99.90
23869;DHT22;12115;47.128;15.422;2023-07-31T12:36:30;24.90;99.90
23869;DHT22;12115;47.128;15.422;2023-07-31T12:39:02;25.00;99.90
23869;DHT22;12115;47.128;15.422;2023-07-31T12:41:31;25.00;99.90
23869;DHT22;12115;47.128;15.422;2023-07-31T12:44:01;25.00;99.90
23869;DHT22;12115;47.128;15.422;2023-07-31T12:46:42;24.90;99.90
23869;DHT22;12115;47.128;15.422;2023-07-31T12:49:52;24.80;99.90
23869;DHT22;12115;47.128;15.422;2023-07-31T12:52:25;24.70;99.90
23869;DHT22;12115;47.128;15.422;2023-07-31T12:55:59;24.70;99.90
23869;DHT22;12115;47.128;15.422;2023-07-31T12:59:07;24.60;99.90
23869;DHT22;12115;47.128;15.422;2023-07-31T13:01:35;24.60;99.90
23869;DHT22;12115;47.128;15.422;2023-07-31T13:04:02;24.60;99.90
23869;DHT22;12115;47.128;15.422;2023-07-31T13:06:29;24.60;99.90
23869;DHT22;12115;47.128;15.422;2023-07-31T13:08:56;24.70;99.90
23869;DHT22;12115;47.128;15.422;2023-07-31T13:11:23;24.60;99.90
23869;DHT22;12115;47.128;15.422;2023-07-31T13:13:50;24.60;99.90
23869;DHT22;12115;47.128;15.422;2023-07-31T13:16:17;24.70;99.90
23869;DHT22;12115;47.128;15.422;2023-07-31T13:18:45;24.80;99.90
23869;DHT22;12115;47.128;15.422;2023-07-31T13:21:12;24.70;99.90
23869;DHT22;12115;47.128;15.422;2023-07-31T13:23:40;24.70;99.90
23869;DHT22;12115;47.128;15.422;2023-07-31T13:26:07;24.70;99.90
23869;DHT22;12115;47.128;15.422;2023-07-31T13:28:34;24.40;99.90
23869;DHT22;12115;47.128;15.422;2023-07-31T13:31:01;24.50;99.90
23869;DHT22;12115;47.128;15.422;2023-07-31T13:33:39;24.60;99.90
23869;DHT22;12115;47.128;15.422;2023-07-31T13:36:57;24.60;99.90
23869;DHT22;12115;47.128;15.422;2023-07-31T13:39:53;24.50;99.90
23869;DHT22;12115;47.128;15.422;2023-07-31T13:43:00;24.50;99.90
23869;DHT22;12115;47.128;15.422;2023-07-31T13:45:40;24.40;99.90
23869;DHT22;12115;47.128;15.422;2023-07-31T13:49:04;24.40;99.90
23869;DHT22;12115;47.128;15.422;2023-07-31T13:52:22;24.60;99.90
23869;DHT22;12115;47.128;15.422;2023-07-31T13:55:21;24.90;99.90
23869;DHT22;12115;47.128;15.422;2023-07-31T13:58:23;25.00;99.90
23869;DHT22;12115;47.128;15.422;2023-07-31T14:01:48;25.10;99.90
23869;DHT22;12115;47.128;15.422;2023-07-31T14:05:38;25.10;99.90
23869;DHT22;12115;47.128;15.422;2023-07-31T14:17:29;25.10;99.90
23869;DHT22;12115;47.128;15.422;2023-07-31T14:20:16;25.00;99.90
23869;DHT22;12115;47.128;15.422;2023-07-31T14:24:44;25.00;99.90
23869;DHT22;12115;47.128;15.422;2023-07-31T14:27:37;24.90;99.90
23869;DHT22;12115;47.128;15.422;2023-07-31T14:30:41;24.90;99.90
23869;DHT22;12115;47.128;15.422;2023-07-31T14:33:18;24.80;99.90
23869;DHT22;12115;47.128;15.422;2023-07-31T14:35:46;24.70;99.90
23869;DHT22;12115;47.128;15.422;2023-07-31T14:38:13;24.60;99.90
23869;DHT22;12115;47.128;15.422;2023-07-31T14:40:41;24.70;99.90
23869;DHT22;12115;47.128;15.422;2023-07-31T14:43:09;24.70;99.90
23869;DHT22;12115;47.128;15.422;2023-07-31T14:45:36;24.80;99.90
23869;DHT22;12115;47.128;15.422;2023-07-31T14:48:14;24.90;99.90
23869;DHT22;12115;47.128;15.422;2023-07-31T14:50:42;24.90;99.90
23869;DHT22;12115;47.128;15.422;2023-07-31T14:53:09;24.80;99.90
23869;DHT22;12115;47.128;15.422;2023-07-31T14:55:37;24.70;99.90
23869;DHT22;12115;47.128;15.422;2023-07-31T14:58:30;24.70;99.90
23869;DHT22;12115;47.128;15.422;2023-07-31T15:00:57;24.60;99.90
23869;DHT22;12115;47.128;15.422;2023-07-31T15:03:24;24.70;99.90
23869;DHT22;12115;47.128;15.422;2023-07-31T15:05:52;24.70;99.90
23869;DHT22;12115;47.128;15.422;2023-07-31T15:08:19;24.70;99.90
23869;DHT22;12115;47.128;15.422;2023-07-31T15:10:46;24.80;99.90
23869;DHT22;12115;47.128;15.422;2023-07-31T15:13:13;24.80;99.90
23869;DHT22;12115;47.128;15.422;2023-07-31T15:15:40;24.70;99.90
23869;DHT22;12115;47.128;15.422;2023-07-31T15:18:07;24.70;99.90
23869;DHT22;12115;47.128;15.422;2023-07-31T15:20:35;24.70;99.90
23869;DHT22;12115;47.128;15.422;2023-07-31T15:23:02;24.70;99.90
23869;DHT22;12115;47.128;15.422;2023-07-31T15:25:29;24.70;99.90
23869;DHT22;12115;47.128;15.422;2023-07-31T15:27:56;24.70;99.90
23869;DHT22;12115;47.128;15.422;2023-07-31T15:30:24;24.70;99.90
23869;DHT22;12115;47.128;15.422;2023-07-31T15:32:52;24.70;99.90
23869;DHT22;12115;47.128;15.422;2023-07-31T15:35:20;24.80;99.90
23869;DHT22;12115;47.128;15.422;2023-07-31T15:37:48;24.80;99.90
23869;DHT22;12115;47.128;15.422;2023-07-31T15:40:16;24.80;99.90
23869;DHT22;12115;47.128;15.422;2023-07-31T15:42:43;24.90;99.90
23869;DHT22;12115;47.128;15.422;2023-07-31T15:45:10;24.90;99.90
23869;DHT22;12115;47.128;15.422;2023-07-31T15:47:38;24.90;99.90
23869;DHT22;12115;47.128;15.422;2023-07-31T15:50:07;24.70;99.90
23869;DHT22;12115;47.128;15.422;2023-07-31T15:52:34;24.70;99.90
23869;DHT22;12115;47.128;15.422;2023-07-31T15:55:02;24.60;99.90
23869;DHT22;12115;47.128;15.422;2023-07-31T15:57:29;24.50;99.90
23869;DHT22;12115;47.128;15.422;2023-07-31T15:59:57;24.60;99.90
23869;DHT22;12115;47.128;15.422;2023-07-31T16:02:24;24.60;99.90
23869;DHT22;12115;47.128;15.422;2023-07-31T16:04:51;24.60;99.90
23869;DHT22;12115;47.128;15.422;2023-07-31T16:07:19;24.50;99.90
23869;DHT22;12115;47.128;15.422;2023-07-31T16:09:48;24.50;99.90
23869;DHT22;12115;47.128;15.422;2023-07-31T16:12:15;24.50;99.90
23869;DHT22;12115;47.128;15.422;2023-07-31T16:14:42;24.60;99.90
23869;DHT22;12115;47.128;15.422;2023-07-31T16:17:09;24.60;99.90
23869;DHT22;12115;47.128;15.422;2023-07-31T16:19:37;24.70;99.90
23869;DHT22;12115;47.128;15.422;2023-07-31T16:22:29;24.70;99.90
23869;DHT22;12115;47.128;15.422;2023-07-31T16:24:57;24.70;99.90
23869;DHT22;12115;47.128;15.422;2023-07-31T16:27:24;24.70;99.90
23869;DHT22;12115;47.128;15.422;2023-07-31T16:29:52;24.70;99.90
23869;DHT22;12115;47.128;15.422;2023-07-31T16:32:19;24.80;99.90
23869;DHT22;12115;47.128;15.422;2023-07-31T16:34:47;24.80;99.90
23869;DHT22;12115;47.128;15.422;2023-07-31T16:37:15;24.80;99.90
23869;DHT22;12115;47.128;15.422;2023-07-31T16:39:42;24.80;99.90
23869;DHT22;12115;47.128;15.422;2023-07-31T16:42:13;24.70;99.90
23869;DHT22;12115;47.128;15.422;2023-07-31T16:44:42;24.70;99.90
23869;DHT22;12115;47.128;15.422;2023-07-31T16:47:09;24.70;99.90
23869;DHT22;12115;47.128;15.422;2023-07-31T16:49:36;24.70;99.90
23869;DHT22;12115;47.128;15.422;2023-07-31T16:52:04;24.80;99.90
23869;DHT22;12115;47.128;15.422;2023-07-31T16:54:31;24.70;99.90
23869;DHT22;12115;47.128;15.422;2023-07-31T16:56:59;24.70;99.90
23869;DHT22;12115;47.128;15.422;2023-07-31T16:59:27;24.70;99.90
23869;DHT22;12115;47.128;15.422;2023-07-31T17:01:55;24.70;99.90
23869;DHT22;12115;47.128;15.422;2023-07-31T17:04:41;24.70;99.90
23869;DHT22;12115;47.128;15.422;2023-07-31T17:07:08;24.60;99.90
23869;DHT22;12115;47.128;15.422;2023-07-31T17:09:36;24.50;99.90
23869;DHT22;12115;47.128;15.422;2023-07-31T17:12:03;24.40;99.90
23869;DHT22;12115;47.128;15.422;2023-07-31T17:14:33;24.40;99.90
23869;DHT22;12115;47.128;15.422;2023-07-31T17:17:01;24.40;99.90
23869;DHT22;12115;47.128;15.422;2023-07-31T17:19:28;24.40;99.90
23869;DHT22;12115;47.128;15.422;2023-07-31T17:21:55;24.40;99.90
23869;DHT22;12115;47.128;15.422;2023-07-31T17:24:22;24.50;99.90
23869;DHT22;12115;47.128;15.422;2023-07-31T17:26:50;24.50;99.90
23869;DHT22;12115;47.128;15.422;2023-07-31T17:29:19;24.40;99.90
23869;DHT22;12115;47.128;15.422;2023-07-31T17:31:47;24.30;99.90
23869;DHT22;12115;47.128;15.422;2023-07-31T17:34:16;24.30;99.90
23869;DHT22;12115;47.128;15.422;2023-07-31T17:36:44;24.30;99.90
23869;DHT22;12115;47.128;15.422;2023-07-31T17:39:13;24.30;99.90
23869;DHT22;12115;47.128;15.422;2023-07-31T17:41:43;24.30;99.90
23869;DHT22;12115;47.128;15.422;2023-07-31T17:44:12;24.20;99.90
23869;DHT22;12115;47.128;15.422;2023-07-31T17:46:42;24.20;99.90
23869;DHT22;12115;47.128;15.422;2023-07-31T17:49:11;24.20;99.90
23869;DHT22;12115;47.128;15.422;2023-07-31T17:51:39;24.20;99.90
23869;DHT22;12115;47.128;15.422;2023-07-31T17:54:08;24.20;99.90
23869;DHT22;12115;47.128;15.422;2023-07-31T17:56:37;24.00;99.90
23869;DHT22;12115;47.128;15.422;2023-07-31T17:59:07;23.90;99.90
23869;DHT22;12115;47.128;15.422;2023-07-31T18:01:36;23.80;99.90
23869;DHT22;12115;47.128;15.422;2023-07-31T18:04:05;23.70;99.90
23869;DHT22;12115;47.128;15.422;2023-07-31T18:06:34;23.70;99.90
23869;DHT22;12115;47.128;15.422;2023-07-31T18:09:03;23.70;99.90
23869;DHT22;12115;47.128;15.422;2023-07-31T18:11:32;23.60;99.90
23869;DHT22;12115;47.128;15.422;2023-07-31T18:14:02;23.50;99.90
23869;DHT22;12115;47.128;15.422;2023-07-31T18:16:34;23.40;99.90